Chile Chico Airport


Codes: SCCC/CCH
Name: Chile Chico Airport
City: Chile Chico
Country: Chile
Elevation: 1070 ft.

Photos at Chile Chico Airport


   Photos courtesy of SpottingLog. You can add your own sightings and photos by signing up for a free trial today.



No photos found.

Weather at Chile Chico Airport


Time (UTC)DescriptionTempratureWindCloud coverageVisibilityPressureHumidity
18-Apr-2024 00:00Broken Clouds12°C11 mph, W55%10000m1011hPa70%
18-Apr-2024 03:00Broken Clouds11°C9 mph, W60%10000m1010hPa71%
18-Apr-2024 06:00Broken Clouds11°C7 mph, NW74%10000m1008hPa68%
18-Apr-2024 09:00Overcast Clouds10°C0 mph, W94%10000m1004hPa73%
18-Apr-2024 12:00Overcast Clouds10°C0 mph, S97%10000m1001hPa72%
18-Apr-2024 15:00Light Rain10°C2 mph, SE97%10000m998hPa68%
18-Apr-2024 18:00Overcast Clouds11°C4 mph, NW87%10000m995hPa72%
18-Apr-2024 21:00Light Rain12°C16 mph, W27%10000m992hPa70%
19-Apr-2024 00:00Few Clouds9°C11 mph, W18%10000m993hPa69%
19-Apr-2024 03:00Light Rain8°C7 mph, NW30%10000m992hPa74%
19-Apr-2024 06:00Light Rain6°C7 mph, NW60%10000m992hPa87%
19-Apr-2024 09:00Light Rain6°C7 mph, NW73%10000m992hPa86%
19-Apr-2024 12:00Light Rain7°C13 mph, W80%10000m994hPa84%
19-Apr-2024 15:00Scattered Clouds9°C27 mph, W49%10000m997hPa60%
19-Apr-2024 18:00Broken Clouds10°C22 mph, W53%10000m997hPa56%
19-Apr-2024 21:00Few Clouds9°C20 mph, W18%10000m998hPa61%
20-Apr-2024 00:00Scattered Clouds7°C18 mph, W28%10000m1002hPa75%
20-Apr-2024 03:00Broken Clouds7°C18 mph, W62%10000m1005hPa75%
20-Apr-2024 06:00Scattered Clouds7°C13 mph, W41%10000m1007hPa77%
20-Apr-2024 09:00Few Clouds6°C13 mph, W16%10000m1009hPa80%
20-Apr-2024 12:00Few Clouds6°C13 mph, W18%10000m1011hPa77%
20-Apr-2024 15:00Few Clouds8°C18 mph, W16%10000m1012hPa55%
20-Apr-2024 18:00Clear Sky9°C16 mph, W10%10000m1013hPa48%
20-Apr-2024 21:00Clear Sky8°C13 mph, W5%10000m1015hPa50%
21-Apr-2024 00:00Clear Sky6°C13 mph, W3%10000m1019hPa63%
21-Apr-2024 03:00Clear Sky5°C11 mph, W1%10000m1020hPa65%
21-Apr-2024 06:00Clear Sky5°C11 mph, W1%10000m1022hPa63%
21-Apr-2024 09:00Clear Sky4°C9 mph, W1%10000m1022hPa62%
21-Apr-2024 12:00Clear Sky4°C9 mph, W5%10000m1023hPa58%
21-Apr-2024 15:00Few Clouds7°C7 mph, W15%10000m1022hPa46%
21-Apr-2024 18:00Clear Sky8°C4 mph, W10%10000m1020hPa43%
21-Apr-2024 21:00Clear Sky8°C4 mph, W0%10000m1019hPa47%
22-Apr-2024 00:00Clear Sky7°C7 mph, W0%10000m1019hPa60%
22-Apr-2024 03:00Clear Sky6°C9 mph, W0%10000m1018hPa61%
22-Apr-2024 06:00Clear Sky5°C11 mph, W0%10000m1016hPa54%
22-Apr-2024 09:00Clear Sky5°C16 mph, W0%10000m1014hPa47%
22-Apr-2024 12:00Clear Sky5°C18 mph, W0%10000m1013hPa45%
22-Apr-2024 15:00Clear Sky9°C18 mph, W2%10000m1013hPa35%
22-Apr-2024 18:00Clear Sky10°C20 mph, W5%10000m1012hPa36%
22-Apr-2024 21:00Clear Sky9°C18 mph, W8%10000m1014hPa45%